sensor_id;sensor_type;location;lat;lon;timestamp;pressure;altitude;pressure_sealevel;temperature;humidity
30935;BME280;51033;42.648;23.292;2023-04-05T00:00:35;93333.59;;;-1.33;71.23
30935;BME280;51033;42.648;23.292;2023-04-05T00:03:01;93328.25;;;-1.53;72.25
30935;BME280;51033;42.648;23.292;2023-04-05T00:05:27;93338.72;;;-1.48;72.68
30935;BME280;51033;42.648;23.292;2023-04-05T00:08:02;93331.03;;;-1.28;72.36
30935;BME280;51033;42.648;23.292;2023-04-05T00:10:29;93353.59;;;-1.02;70.92
30935;BME280;51033;42.648;23.292;2023-04-05T00:12:58;93336.25;;;-1.28;71.72
30935;BME280;51033;42.648;23.292;2023-04-05T00:15:24;93338.81;;;-1.33;71.74
30935;BME280;51033;42.648;23.292;2023-04-05T00:17:49;93346.06;;;-1.03;71.57
30935;BME280;51033;42.648;23.292;2023-04-05T00:20:15;93343.22;;;-0.91;71.08
30935;BME280;51033;42.648;23.292;2023-04-05T00:22:41;93320.31;;;-0.84;70.02
30935;BME280;51033;42.648;23.292;2023-04-05T00:25:11;93340.03;;;-1.04;70.70
30935;BME280;51033;42.648;23.292;2023-04-05T00:27:38;93335.59;;;-1.08;70.50
30935;BME280;51033;42.648;23.292;2023-04-05T00:30:04;93327.91;;;-1.25;71.29
30935;BME280;51033;42.648;23.292;2023-04-05T00:32:29;93360.22;;;-1.31;72.11
30935;BME280;51033;42.648;23.292;2023-04-05T00:34:55;93341.38;;;-1.38;71.91
30935;BME280;51033;42.648;23.292;2023-04-05T00:37:20;93322.34;;;-1.39;71.83
30935;BME280;51033;42.648;23.292;2023-04-05T00:39:46;93343.81;;;-1.26;71.89
30935;BME280;51033;42.648;23.292;2023-04-05T00:42:11;93335.72;;;-1.25;71.24
30935;BME280;51033;42.648;23.292;2023-04-05T00:44:37;93354.50;;;-1.28;71.92
30935;BME280;51033;42.648;23.292;2023-04-05T00:47:03;93327.31;;;-1.37;72.08
30935;BME280;51033;42.648;23.292;2023-04-05T00:49:34;93345.72;;;-1.12;71.58
30935;BME280;51033;42.648;23.292;2023-04-05T00:52:00;93329.72;;;-1.25;71.30
30935;BME280;51033;42.648;23.292;2023-04-05T00:54:26;93316.22;;;-1.17;71.17
30935;BME280;51033;42.648;23.292;2023-04-05T00:56:55;93361.44;;;-1.02;70.90
30935;BME280;51033;42.648;23.292;2023-04-05T00:59:21;93360.75;;;-0.87;70.55
30935;BME280;51033;42.648;23.292;2023-04-05T01:01:49;93355.28;;;-0.85;70.61
30935;BME280;51033;42.648;23.292;2023-04-05T01:04:27;93369.34;;;-0.91;71.06
30935;BME280;51033;42.648;23.292;2023-04-05T01:12:04;93349.69;;;-1.04;69.84
30935;BME280;51033;42.648;23.292;2023-04-05T01:14:31;93325.88;;;-1.18;69.80
30935;BME280;51033;42.648;23.292;2023-04-05T01:16:56;93341.84;;;-1.09;69.92
30935;BME280;51033;42.648;23.292;2023-04-05T01:19:32;93370.34;;;-1.03;70.16
30935;BME280;51033;42.648;23.292;2023-04-05T01:30:34;93362.59;;;-0.87;69.97
30935;BME280;51033;42.648;23.292;2023-04-05T01:33:36;93374.38;;;-0.80;69.95
30935;BME280;51033;42.648;23.292;2023-04-05T01:36:20;93368.31;;;-0.90;69.45
30935;BME280;51033;42.648;23.292;2023-04-05T01:38:49;93356.94;;;-1.11;70.42
30935;BME280;51033;42.648;23.292;2023-04-05T01:41:15;93358.03;;;-1.07;70.51
30935;BME280;51033;42.648;23.292;2023-04-05T01:43:41;93364.03;;;-1.07;70.67
30935;BME280;51033;42.648;23.292;2023-04-05T01:46:06;93345.34;;;-1.30;71.18
30935;BME280;51033;42.648;23.292;2023-04-05T01:48:31;93360.09;;;-1.09;70.90
30935;BME280;51033;42.648;23.292;2023-04-05T01:50:57;93364.53;;;-1.10;70.84
30935;BME280;51033;42.648;23.292;2023-04-05T01:53:22;93332.66;;;-1.12;70.48
30935;BME280;51033;42.648;23.292;2023-04-05T01:55:48;93368.88;;;-0.83;69.88
30935;BME280;51033;42.648;23.292;2023-04-05T01:58:13;93361.59;;;-0.76;69.66
30935;BME280;51033;42.648;23.292;2023-04-05T02:00:38;93346.94;;;-0.77;69.29
30935;BME280;51033;42.648;23.292;2023-04-05T02:03:04;93322.34;;;-0.91;68.68
30935;BME280;51033;42.648;23.292;2023-04-05T02:05:29;93350.88;;;-0.80;69.24
30935;BME280;51033;42.648;23.292;2023-04-05T02:07:55;93346.41;;;-0.84;68.94
30935;BME280;51033;42.648;23.292;2023-04-05T02:10:21;93345.47;;;-0.68;67.43
30935;BME280;51033;42.648;23.292;2023-04-05T02:12:47;93366.38;;;-0.63;67.49
30935;BME280;51033;42.648;23.292;2023-04-05T02:15:12;93361.66;;;-0.61;66.94
30935;BME280;51033;42.648;23.292;2023-04-05T02:17:38;93331.53;;;-0.84;66.78
30935;BME280;51033;42.648;23.292;2023-04-05T02:20:07;93366.09;;;-0.62;67.20
30935;BME280;51033;42.648;23.292;2023-04-05T02:22:35;93340.66;;;-0.81;67.08
30935;BME280;51033;42.648;23.292;2023-04-05T02:25:02;93354.28;;;-0.79;67.48
30935;BME280;51033;42.648;23.292;2023-04-05T02:27:28;93355.72;;;-0.99;68.63
30935;BME280;51033;42.648;23.292;2023-04-05T02:29:53;93339.22;;;-1.09;68.71
30935;BME280;51033;42.648;23.292;2023-04-05T02:32:21;93349.66;;;-1.09;69.30
30935;BME280;51033;42.648;23.292;2023-04-05T02:34:47;93345.22;;;-1.09;69.50
30935;BME280;51033;42.648;23.292;2023-04-05T02:37:12;93343.25;;;-0.86;68.80
30935;BME280;51033;42.648;23.292;2023-04-05T02:39:37;93346.94;;;-0.77;68.45
30935;BME280;51033;42.648;23.292;2023-04-05T02:42:03;93305.44;;;-1.26;68.38
30935;BME280;51033;42.648;23.292;2023-04-05T02:44:28;93340.00;;;-1.09;69.02
30935;BME280;51033;42.648;23.292;2023-04-05T02:46:54;93349.31;;;-1.23;69.29
30935;BME280;51033;42.648;23.292;2023-04-05T02:49:19;93330.75;;;-1.26;69.61
30935;BME280;51033;42.648;23.292;2023-04-05T02:51:45;93338.63;;;-1.21;69.21
30935;BME280;51033;42.648;23.292;2023-04-05T02:54:10;93359.31;;;-1.10;69.19
30935;BME280;51033;42.648;23.292;2023-04-05T02:56:36;93354.31;;;-1.16;69.09
30935;BME280;51033;42.648;23.292;2023-04-05T02:59:01;93286.00;;;-1.50;69.34
30935;BME280;51033;42.648;23.292;2023-04-05T03:01:27;93365.13;;;-1.03;68.77
30935;BME280;51033;42.648;23.292;2023-04-05T03:03:53;93331.09;;;-1.18;68.04
30935;BME280;51033;42.648;23.292;2023-04-05T03:06:19;93337.31;;;-1.24;68.57
30935;BME280;51033;42.648;23.292;2023-04-05T03:08:45;93349.84;;;-1.21;68.79
30935;BME280;51033;42.648;23.292;2023-04-05T03:11:13;93363.50;;;-1.09;68.71
30935;BME280;51033;42.648;23.292;2023-04-05T03:13:39;93349.69;;;-1.04;68.67
30935;BME280;51033;42.648;23.292;2023-04-05T03:16:05;93353.09;;;-1.04;68.13
30935;BME280;51033;42.648;23.292;2023-04-05T03:18:31;93342.06;;;-1.11;68.61
30935;BME280;51033;42.648;23.292;2023-04-05T03:20:57;93345.78;;;-1.02;68.00
30935;BME280;51033;42.648;23.292;2023-04-05T03:23:24;93357.84;;;-0.96;67.87
30935;BME280;51033;42.648;23.292;2023-04-05T03:25:57;93336.91;;;-1.01;68.38
30935;BME280;51033;42.648;23.292;2023-04-05T03:28:23;93350.94;;;-1.12;70.01
30935;BME280;51033;42.648;23.292;2023-04-05T03:30:50;93334.72;;;-1.19;70.69
30935;BME280;51033;42.648;23.292;2023-04-05T03:33:16;93329.25;;;-1.22;71.44
30935;BME280;51033;42.648;23.292;2023-04-05T03:35:41;93324.28;;;-1.19;70.35
30935;BME280;51033;42.648;23.292;2023-04-05T03:38:07;93356.16;;;-1.12;71.28
30935;BME280;51033;42.648;23.292;2023-04-05T03:40:32;93346.97;;;-1.24;72.21
30935;BME280;51033;42.648;23.292;2023-04-05T03:42:57;93344.38;;;-1.19;71.14
30935;BME280;51033;42.648;23.292;2023-04-05T03:45:23;93364.63;;;-0.95;70.95
30935;BME280;51033;42.648;23.292;2023-04-05T03:47:49;93359.97;;;-0.92;71.02
30935;BME280;51033;42.648;23.292;2023-04-05T03:50:14;93346.25;;;-1.10;71.62
30935;BME280;51033;42.648;23.292;2023-04-05T03:52:40;93343.13;;;-1.12;72.44
30935;BME280;51033;42.648;23.292;2023-04-05T03:55:06;93372.41;;;-1.05;72.98
30935;BME280;51033;42.648;23.292;2023-04-05T03:57:32;93369.94;;;-1.21;74.87
30935;BME280;51033;42.648;23.292;2023-04-05T03:59:58;93362.75;;;-1.04;74.58
30935;BME280;51033;42.648;23.292;2023-04-05T04:02:23;93375.03;;;-1.00;74.18
30935;BME280;51033;42.648;23.292;2023-04-05T04:04:50;93377.41;;;-0.98;73.58
30935;BME280;51033;42.648;23.292;2023-04-05T04:07:15;93379.25;;;-0.93;72.96
30935;BME280;51033;42.648;23.292;2023-04-05T04:09:41;93387.19;;;-0.78;73.06
30935;BME280;51033;42.648;23.292;2023-04-05T04:12:06;93367.34;;;-0.74;71.48
30935;BME280;51033;42.648;23.292;2023-04-05T04:14:34;93356.91;;;-0.74;71.45
30935;BME280;51033;42.648;23.292;2023-04-05T04:16:59;93380.34;;;-0.84;71.14
30935;BME280;51033;42.648;23.292;2023-04-05T04:19:24;93383.34;;;-0.61;70.46
30935;BME280;51033;42.648;23.292;2023-04-05T04:21:50;93366.31;;;-0.73;70.17
30935;BME280;51033;42.648;23.292;2023-04-05T04:24:18;93378.66;;;-0.64;69.63
30935;BME280;51033;42.648;23.292;2023-04-05T04:26:45;93339.66;;;-0.75;68.40
30935;BME280;51033;42.648;23.292;2023-04-05T04:29:10;93386.28;;;-0.47;69.11
30935;BME280;51033;42.648;23.292;2023-04-05T04:31:40;93353.81;;;-0.61;68.81
30935;BME280;51033;42.648;23.292;2023-04-05T04:34:10;93361.97;;;-0.47;68.44
30935;BME280;51033;42.648;23.292;2023-04-05T04:36:35;93387.91;;;-0.31;68.35
30935;BME280;51033;42.648;23.292;2023-04-05T04:39:03;93384.81;;;-0.23;68.14
30935;BME280;51033;42.648;23.292;2023-04-05T04:41:32;93386.34;;;-0.32;66.56
30935;BME280;51033;42.648;23.292;2023-04-05T04:43:59;93378.16;;;-0.51;67.13
30935;BME280;51033;42.648;23.292;2023-04-05T04:46:29;93374.16;;;-0.73;66.33
30935;BME280;51033;42.648;23.292;2023-04-05T04:48:59;93380.59;;;-0.86;65.60
30935;BME280;51033;42.648;23.292;2023-04-05T04:51:25;93395.41;;;-0.97;66.01
30935;BME280;51033;42.648;23.292;2023-04-05T04:53:51;93373.94;;;-1.09;66.80
30935;BME280;51033;42.648;23.292;2023-04-05T04:56:16;93403.00;;;-0.95;65.46
30935;BME280;51033;42.648;23.292;2023-04-05T04:58:42;93369.94;;;-1.21;65.51
30935;BME280;51033;42.648;23.292;2023-04-05T05:01:08;93404.53;;;-0.99;65.50
30935;BME280;51033;42.648;23.292;2023-04-05T05:03:36;93394.66;;;-0.92;66.72
30935;BME280;51033;42.648;23.292;2023-04-05T05:06:03;93396.53;;;-0.82;67.05
30935;BME280;51033;42.648;23.292;2023-04-05T05:08:29;93384.47;;;-0.93;67.08
30935;BME280;51033;42.648;23.292;2023-04-05T05:10:54;93398.13;;;-0.81;66.72
30935;BME280;51033;42.648;23.292;2023-04-05T05:13:20;93397.19;;;-0.60;66.78
30935;BME280;51033;42.648;23.292;2023-04-05T05:15:45;93376.47;;;-0.77;65.79
30935;BME280;51033;42.648;23.292;2023-04-05T05:18:11;93390.25;;;-0.86;65.55
30935;BME280;51033;42.648;23.292;2023-04-05T05:20:39;93352.94;;;-1.29;66.88
30935;BME280;51033;42.648;23.292;2023-04-05T05:23:05;93404.38;;;-0.87;67.29
30935;BME280;51033;42.648;23.292;2023-04-05T05:25:30;93393.50;;;-0.69;66.92
30935;BME280;51033;42.648;23.292;2023-04-05T05:27:56;93406.34;;;-0.53;66.62
30935;BME280;51033;42.648;23.292;2023-04-05T05:30:21;93397.16;;;-0.65;66.30
30935;BME280;51033;42.648;23.292;2023-04-05T05:32:47;93392.13;;;-0.77;67.04
30935;BME280;51033;42.648;23.292;2023-04-05T05:35:12;93410.72;;;-0.73;67.29
30935;BME280;51033;42.648;23.292;2023-04-05T05:37:38;93397.50;;;-0.99;68.33
30935;BME280;51033;42.648;23.292;2023-04-05T05:40:04;93376.63;;;-0.99;68.74
30935;BME280;51033;42.648;23.292;2023-04-05T05:42:30;93412.84;;;-0.65;67.60
30935;BME280;51033;42.648;23.292;2023-04-05T05:45:01;93391.44;;;-0.62;66.55
30935;BME280;51033;42.648;23.292;2023-04-05T05:47:27;93390.41;;;-0.56;65.26
30935;BME280;51033;42.648;23.292;2023-04-05T05:49:52;93394.13;;;-0.42;64.54
30935;BME280;51033;42.648;23.292;2023-04-05T05:52:18;93335.16;;;-0.90;63.67
30935;BME280;51033;42.648;23.292;2023-04-05T05:54:43;93400.06;;;-0.57;63.11
30935;BME280;51033;42.648;23.292;2023-04-05T05:57:08;93370.44;;;-0.77;63.02
30935;BME280;51033;42.648;23.292;2023-04-05T05:59:34;93397.97;;;-0.65;64.01
30935;BME280;51033;42.648;23.292;2023-04-05T06:01:59;93403.44;;;-0.61;62.72
30935;BME280;51033;42.648;23.292;2023-04-05T06:04:25;93382.44;;;-0.81;62.09
30935;BME280;51033;42.648;23.292;2023-04-05T06:06:51;93344.75;;;-1.01;62.51
30935;BME280;51033;42.648;23.292;2023-04-05T06:09:16;93364.78;;;-0.69;63.04
30935;BME280;51033;42.648;23.292;2023-04-05T06:11:42;93388.09;;;-0.47;61.52
30935;BME280;51033;42.648;23.292;2023-04-05T06:14:07;93393.88;;;-0.40;60.54
30935;BME280;51033;42.648;23.292;2023-04-05T06:16:33;93387.88;;;-0.41;60.96
30935;BME280;51033;42.648;23.292;2023-04-05T06:19:00;93365.34;;;-0.57;59.82
30935;BME280;51033;42.648;23.292;2023-04-05T06:21:25;93414.63;;;-0.14;59.96
30935;BME280;51033;42.648;23.292;2023-04-05T06:23:51;93408.91;;;-0.11;59.10
30935;BME280;51033;42.648;23.292;2023-04-05T06:26:22;93382.97;;;-0.27;59.86
30935;BME280;51033;42.648;23.292;2023-04-05T06:28:51;93402.09;;;-0.17;59.13
30935;BME280;51033;42.648;23.292;2023-04-05T06:31:19;93412.50;;;-0.22;59.67
30935;BME280;51033;42.648;23.292;2023-04-05T06:33:45;93412.97;;;-0.40;60.51
30935;BME280;51033;42.648;23.292;2023-04-05T06:36:13;93406.72;;;-0.39;60.22
30935;BME280;51033;42.648;23.292;2023-04-05T06:38:38;93410.94;;;-0.23;59.34
30935;BME280;51033;42.648;23.292;2023-04-05T06:41:03;93403.88;;;-0.22;59.94
30935;BME280;51033;42.648;23.292;2023-04-05T06:43:29;93423.03;;;-0.01;59.74
30935;BME280;51033;42.648;23.292;2023-04-05T06:45:55;93426.22;;;0.16;60.16
30935;BME280;51033;42.648;23.292;2023-04-05T06:48:21;93425.19;;;0.17;59.32
30935;BME280;51033;42.648;23.292;2023-04-05T06:50:46;93428.88;;;0.26;59.38
30935;BME280;51033;42.648;23.292;2023-04-05T06:53:12;93437.25;;;0.33;59.69
30935;BME280;51033;42.648;23.292;2023-04-05T06:55:39;93426.28;;;0.41;58.72
30935;BME280;51033;42.648;23.292;2023-04-05T06:58:04;93405.84;;;0.18;57.67
30935;BME280;51033;42.648;23.292;2023-04-05T07:00:30;93423.13;;;0.19;58.58
30935;BME280;51033;42.648;23.292;2023-04-05T07:02:55;93444.63;;;0.51;59.76
30935;BME280;51033;42.648;23.292;2023-04-05T07:05:20;93429.97;;;0.60;56.90
30935;BME280;51033;42.648;23.292;2023-04-05T07:07:46;93455.13;;;0.76;57.32
30935;BME280;51033;42.648;23.292;2023-04-05T07:10:13;93459.81;;;0.69;56.52
30935;BME280;51033;42.648;23.292;2023-04-05T07:12:38;93429.47;;;0.53;57.65
30935;BME280;51033;42.648;23.292;2023-04-05T07:15:05;93445.19;;;0.63;58.36
30935;BME280;51033;42.648;23.292;2023-04-05T07:17:30;93462.44;;;0.64;55.99
30935;BME280;51033;42.648;23.292;2023-04-05T07:19:56;93440.41;;;0.45;57.69
30935;BME280;51033;42.648;23.292;2023-04-05T07:22:21;93469.25;;;0.70;57.74
30935;BME280;51033;42.648;23.292;2023-04-05T07:24:46;93456.13;;;0.55;57.15
30935;BME280;51033;42.648;23.292;2023-04-05T07:27:13;93460.84;;;0.53;56.06
30935;BME280;51033;42.648;23.292;2023-04-05T07:29:39;93483.34;;;0.44;58.66
30935;BME280;51033;42.648;23.292;2023-04-05T07:32:07;93453.25;;;0.52;58.33
30935;BME280;51033;42.648;23.292;2023-04-05T07:34:33;93467.38;;;0.51;58.94
30935;BME280;51033;42.648;23.292;2023-04-05T07:36:58;93468.16;;;0.46;58.59
30935;BME280;51033;42.648;23.292;2023-04-05T07:39:24;93440.34;;;0.10;58.01
30935;BME280;51033;42.648;23.292;2023-04-05T07:41:50;93423.03;;;-0.01;58.01
30935;BME280;51033;42.648;23.292;2023-04-05T07:44:15;93472.56;;;0.30;58.72
30935;BME280;51033;42.648;23.292;2023-04-05T07:46:41;93462.09;;;0.30;58.69
30935;BME280;51033;42.648;23.292;2023-04-05T07:49:11;93481.09;;;0.06;58.12
30935;BME280;51033;42.648;23.292;2023-04-05T07:51:37;93467.31;;;0.15;58.41
30935;BME280;51033;42.648;23.292;2023-04-05T07:54:05;93457.88;;;0.09;58.59
30935;BME280;51033;42.648;23.292;2023-04-05T07:56:31;93471.69;;;-0.00;58.28
30935;BME280;51033;42.648;23.292;2023-04-05T07:58:57;93490.31;;;0.18;58.00
30935;BME280;51033;42.648;23.292;2023-04-05T08:01:23;93473.47;;;-0.11;58.05
30935;BME280;51033;42.648;23.292;2023-04-05T08:03:54;93496.28;;;0.09;59.16
30935;BME280;51033;42.648;23.292;2023-04-05T08:06:23;93473.28;;;0.16;59.38
30935;BME280;51033;42.648;23.292;2023-04-05T08:08:49;93494.75;;;0.18;59.17
30935;BME280;51033;42.648;23.292;2023-04-05T08:11:15;93503.19;;;0.30;59.20
30935;BME280;51033;42.648;23.292;2023-04-05T08:13:40;93502.06;;;0.16;59.14
30935;BME280;51033;42.648;23.292;2023-04-05T08:16:07;93490.03;;;0.10;59.73
30935;BME280;51033;42.648;23.292;2023-04-05T08:18:33;93505.75;;;0.20;59.04
30935;BME280;51033;42.648;23.292;2023-04-05T08:20:59;93483.41;;;-0.03;58.87
30935;BME280;51033;42.648;23.292;2023-04-05T08:23:25;93500.94;;;-0.03;58.69
30935;BME280;51033;42.648;23.292;2023-04-05T08:25:51;93518.00;;;0.09;59.48
30935;BME280;51033;42.648;23.292;2023-04-05T08:28:17;93505.75;;;0.15;59.59
30935;BME280;51033;42.648;23.292;2023-04-05T08:30:42;93513.09;;;0.23;59.82
30935;BME280;51033;42.648;23.292;2023-04-05T08:33:08;93483.16;;;-0.07;59.99
30935;BME280;51033;42.648;23.292;2023-04-05T08:35:36;93492.63;;;0.05;59.57
30935;BME280;51033;42.648;23.292;2023-04-05T08:38:03;93489.47;;;0.03;60.01
30935;BME280;51033;42.648;23.292;2023-04-05T08:40:44;93492.63;;;0.05;60.20
30935;BME280;51033;42.648;23.292;2023-04-05T08:43:36;93521.47;;;0.25;59.63
30935;BME280;51033;42.648;23.292;2023-04-05T08:46:07;93507.03;;;0.12;59.37
30935;BME280;51033;42.648;23.292;2023-04-05T08:48:34;93514.56;;;0.04;60.22
30935;BME280;51033;42.648;23.292;2023-04-05T08:51:01;93531.09;;;0.14;60.68
30935;BME280;51033;42.648;23.292;2023-04-05T08:53:26;93491.06;;;0.09;61.30
30935;BME280;51033;42.648;23.292;2023-04-05T08:55:55;93507.88;;;0.28;59.34
30935;BME280;51033;42.648;23.292;2023-04-05T08:58:22;93496.06;;;0.15;59.27
30935;BME280;51033;42.648;23.292;2023-04-05T09:00:49;93508.09;;;0.16;58.34
30935;BME280;51033;42.648;23.292;2023-04-05T09:03:20;93508.53;;;-0.02;58.56
30935;BME280;51033;42.648;23.292;2023-04-05T09:05:49;93542.41;;;0.30;59.34
30935;BME280;51033;42.648;23.292;2023-04-05T09:08:16;93523.84;;;0.36;58.51
30935;BME280;51033;42.648;23.292;2023-04-05T09:10:41;93544.06;;;0.51;58.16
30935;BME280;51033;42.648;23.292;2023-04-05T09:13:07;93540.88;;;0.39;58.51
30935;BME280;51033;42.648;23.292;2023-04-05T09:15:37;93550.28;;;0.30;59.03
30935;BME280;51033;42.648;23.292;2023-04-05T09:18:03;93517.72;;;0.11;59.75
30935;BME280;51033;42.648;23.292;2023-04-05T09:20:29;93539.84;;;0.50;59.50
30935;BME280;51033;42.648;23.292;2023-04-05T09:22:57;93542.00;;;0.63;59.37
30935;BME280;51033;42.648;23.292;2023-04-05T09:25:36;93523.66;;;0.53;58.36
30935;BME280;51033;42.648;23.292;2023-04-05T09:28:04;93546.69;;;0.61;57.85
30935;BME280;51033;42.648;23.292;2023-04-05T09:30:30;93547.53;;;0.72;59.56
30935;BME280;51033;42.648;23.292;2023-04-05T09:32:57;93535.75;;;0.85;59.80
30935;BME280;51033;42.648;23.292;2023-04-05T09:35:29;93539.94;;;0.80;60.39
30935;BME280;51033;42.648;23.292;2023-04-05T09:37:59;93538.91;;;0.82;60.47
30935;BME280;51033;42.648;23.292;2023-04-05T09:40:46;93531.81;;;0.77;59.83
30935;BME280;51033;42.648;23.292;2023-04-05T09:43:34;93539.72;;;0.92;61.20
30935;BME280;51033;42.648;23.292;2023-04-05T09:45:58;93506.94;;;0.79;61.14
30935;BME280;51033;42.648;23.292;2023-04-05T09:48:48;93538.88;;;0.71;60.38
30935;BME280;51033;42.648;23.292;2023-04-05T09:51:14;93518.31;;;0.23;61.58
30935;BME280;51033;42.648;23.292;2023-04-05T09:54:16;93538.25;;;0.34;62.78
30935;BME280;51033;42.648;23.292;2023-04-05T09:56:53;93521.22;;;0.31;61.56
30935;BME280;51033;42.648;23.292;2023-04-05T09:59:18;93528.84;;;0.43;62.04
30935;BME280;51033;42.648;23.292;2023-04-05T10:01:44;93542.78;;;0.64;60.96
30935;BME280;51033;42.648;23.292;2023-04-05T10:04:09;93531.78;;;0.62;60.21
30935;BME280;51033;42.648;23.292;2023-04-05T10:06:40;93507.94;;;0.48;57.72
30935;BME280;51033;42.648;23.292;2023-04-05T10:09:07;93535.19;;;0.62;57.36
30935;BME280;51033;42.648;23.292;2023-04-05T10:11:33;93541.44;;;0.51;58.50
30935;BME280;51033;42.648;23.292;2023-04-05T10:14:01;93536.81;;;0.11;58.29
30935;BME280;51033;42.648;23.292;2023-04-05T10:16:29;93543.16;;;0.25;58.51
30935;BME280;51033;42.648;23.292;2023-04-05T10:18:56;93546.97;;;-0.02;59.36
30935;BME280;51033;42.648;23.292;2023-04-05T10:21:29;93522.94;;;0.06;59.11
30935;BME280;51033;42.648;23.292;2023-04-05T10:26:39;93530.25;;;0.04;59.66
30935;BME280;51033;42.648;23.292;2023-04-05T10:29:11;93536.06;;;0.16;58.56
30935;BME280;51033;42.648;23.292;2023-04-05T10:31:49;93523.47;;;0.08;58.60
30935;BME280;51033;42.648;23.292;2023-04-05T10:34:25;93545.47;;;0.17;59.12
30935;BME280;51033;42.648;23.292;2023-04-05T10:36:57;93550.16;;;0.10;58.86
30935;BME280;51033;42.648;23.292;2023-04-05T10:39:31;93497.78;;;-0.11;59.06
30935;BME280;51033;42.648;23.292;2023-04-05T10:42:20;93539.28;;;0.33;59.14
30935;BME280;51033;42.648;23.292;2023-04-05T10:44:58;93546.59;;;0.31;58.80
30935;BME280;51033;42.648;23.292;2023-04-05T10:47:27;93537.13;;;0.15;58.89
30935;BME280;51033;42.648;23.292;2023-04-05T10:49:55;93557.63;;;0.38;59.01
30935;BME280;51033;42.648;23.292;2023-04-05T10:52:21;93545.81;;;0.35;58.38
30935;BME280;51033;42.648;23.292;2023-04-05T10:54:48;93545.66;;;0.57;58.42
30935;BME280;51033;42.648;23.292;2023-04-05T10:57:14;93559.28;;;0.69;57.86
30935;BME280;51033;42.648;23.292;2023-04-05T10:59:42;93552.91;;;0.45;57.62
30935;BME280;51033;42.648;23.292;2023-04-05T11:02:08;93533.75;;;0.24;58.74
30935;BME280;51033;42.648;23.292;2023-04-05T11:04:34;93544.25;;;0.29;58.56
30935;BME280;51033;42.648;23.292;2023-04-05T11:09:39;93536.72;;;0.48;58.31
30935;BME280;51033;42.648;23.292;2023-04-05T11:12:14;93560.88;;;0.80;57.48
30935;BME280;51033;42.648;23.292;2023-04-05T11:14:40;93537.03;;;0.72;56.63
30935;BME280;51033;42.648;23.292;2023-04-05T11:17:23;93530.97;;;0.56;56.17
30935;BME280;51033;42.648;23.292;2023-04-05T11:19:49;93543.97;;;0.31;57.49
30935;BME280;51033;42.648;23.292;2023-04-05T11:22:28;93553.91;;;0.24;57.69
30935;BME280;51033;42.648;23.292;2023-04-05T11:24:56;93561.78;;;0.34;57.65
30935;BME280;51033;42.648;23.292;2023-04-05T11:27:32;93550.47;;;0.18;57.87
30935;BME280;51033;42.648;23.292;2023-04-05T11:30:02;93542.41;;;0.25;58.18
30935;BME280;51033;42.648;23.292;2023-04-05T11:35:12;93559.53;;;0.58;58.64
30935;BME280;51033;42.648;23.292;2023-04-05T11:40:30;93557.69;;;0.58;57.60
30935;BME280;51033;42.648;23.292;2023-04-05T11:43:07;93536.19;;;0.51;58.41
30935;BME280;51033;42.648;23.292;2023-04-05T11:45:35;93561.66;;;0.71;57.91
30935;BME280;51033;42.648;23.292;2023-04-05T11:48:12;93557.72;;;0.68;58.11
30935;BME280;51033;42.648;23.292;2023-04-05T11:50:39;93558.50;;;0.79;57.76
30935;BME280;51033;42.648;23.292;2023-04-05T11:53:12;93530.47;;;0.64;57.56
30935;BME280;51033;42.648;23.292;2023-04-05T11:55:39;93544.63;;;0.68;58.35
30935;BME280;51033;42.648;23.292;2023-04-05T11:58:18;93554.59;;;0.82;58.51
30935;BME280;51033;42.648;23.292;2023-04-05T12:00:45;93554.59;;;0.82;57.28
30935;BME280;51033;42.648;23.292;2023-04-05T12:03:12;93537.88;;;0.88;57.70
30935;BME280;51033;42.648;23.292;2023-04-05T12:06:04;93507.44;;;0.56;57.35
30935;BME280;51033;42.648;23.292;2023-04-05T12:08:41;93544.16;;;0.87;57.92
30935;BME280;51033;42.648;23.292;2023-04-05T12:11:09;93537.09;;;0.92;57.97
30935;BME280;51033;42.648;23.292;2023-04-05T12:13:35;93566.69;;;0.93;57.13
30935;BME280;51033;42.648;23.292;2023-04-05T12:16:02;93551.97;;;0.71;57.41
30935;BME280;51033;42.648;23.292;2023-04-05T12:18:30;93560.91;;;0.91;57.74
30935;BME280;51033;42.648;23.292;2023-04-05T12:20:56;93547.00;;;0.75;57.24
30935;BME280;51033;42.648;23.292;2023-04-05T12:23:22;93551.66;;;0.58;58.44
30935;BME280;51033;42.648;23.292;2023-04-05T12:25:49;93534.91;;;0.54;58.67
30935;BME280;51033;42.648;23.292;2023-04-05T12:28:15;93524.91;;;0.41;58.71
30935;BME280;51033;42.648;23.292;2023-04-05T12:30:51;93529.84;;;0.32;59.40
30935;BME280;51033;42.648;23.292;2023-04-05T12:35:53;93555.28;;;0.47;59.59
30935;BME280;51033;42.648;23.292;2023-04-05T12:38:19;93539.84;;;0.50;59.13
30935;BME280;51033;42.648;23.292;2023-04-05T12:40:44;93560.53;;;0.52;59.38
30935;BME280;51033;42.648;23.292;2023-04-05T12:43:12;93557.59;;;0.33;60.30
30935;BME280;51033;42.648;23.292;2023-04-05T12:45:43;93544.25;;;0.29;60.19
30935;BME280;51033;42.648;23.292;2023-04-05T12:50:44;93560.75;;;0.40;60.38
30935;BME280;51033;42.648;23.292;2023-04-05T12:53:21;93558.69;;;0.47;59.28
30935;BME280;51033;42.648;23.292;2023-04-05T12:55:50;93562.38;;;0.51;59.44
30935;BME280;51033;42.648;23.292;2023-04-05T12:58:16;93547.66;;;0.30;60.12
30935;BME280;51033;42.648;23.292;2023-04-05T13:00:42;93543.97;;;0.31;60.24
30935;BME280;51033;42.648;23.292;2023-04-05T13:03:14;93551.31;;;0.34;61.16
30935;BME280;51033;42.648;23.292;2023-04-05T13:05:40;93576.69;;;0.33;60.50
30935;BME280;51033;42.648;23.292;2023-04-05T13:08:06;93579.53;;;0.27;60.68
30935;BME280;51033;42.648;23.292;2023-04-05T13:10:32;93555.97;;;0.22;60.67
30935;BME280;51033;42.648;23.292;2023-04-05T13:12:57;93556.81;;;0.32;59.26
30935;BME280;51033;42.648;23.292;2023-04-05T13:15:23;93562.59;;;0.34;59.75
30935;BME280;51033;42.648;23.292;2023-04-05T13:17:48;93582.47;;;0.41;58.37
30935;BME280;51033;42.648;23.292;2023-04-05T13:20:15;93576.19;;;0.36;59.09
30935;BME280;51033;42.648;23.292;2023-04-05T13:22:45;93577.47;;;0.34;58.54
30935;BME280;51033;42.648;23.292;2023-04-05T13:25:11;93560.88;;;0.08;59.94
30935;BME280;51033;42.648;23.292;2023-04-05T13:27:37;93575.56;;;0.14;59.58